sensor_id;sensor_type;location;lat;lon;timestamp;temperature;humidity
13496;DHT22;6820;49.374;8.452;2022-07-03T00:02:47;22.17;99.99
13496;DHT22;6820;49.374;8.452;2022-07-03T00:06:49;22.17;99.99
13496;DHT22;6820;49.374;8.452;2022-07-03T00:10:51;22.11;99.99
13496;DHT22;6820;49.374;8.452;2022-07-03T00:14:53;22.09;99.64
13496;DHT22;6820;49.374;8.452;2022-07-03T00:18:55;22.05;99.15
13496;DHT22;6820;49.374;8.452;2022-07-03T00:22:56;22.01;98.94
13496;DHT22;6820;49.374;8.452;2022-07-03T00:27:01;21.99;98.84
13496;DHT22;6820;49.374;8.452;2022-07-03T00:31:03;21.96;98.99
13496;DHT22;6820;49.374;8.452;2022-07-03T00:35:05;21.94;99.09
13496;DHT22;6820;49.374;8.452;2022-07-03T00:39:08;21.89;99.09
13496;DHT22;6820;49.374;8.452;2022-07-03T00:43:10;21.83;99.19
13496;DHT22;6820;49.374;8.452;2022-07-03T00:47:19;21.71;99.19
13496;DHT22;6820;49.374;8.452;2022-07-03T00:51:24;21.71;99.74
13496;DHT22;6820;49.374;8.452;2022-07-03T00:55:27;21.67;99.74
13496;DHT22;6820;49.374;8.452;2022-07-03T00:59:30;21.63;99.99
13496;DHT22;6820;49.374;8.452;2022-07-03T01:03:32;21.59;99.99
13496;DHT22;6820;49.374;8.452;2022-07-03T01:11:48;21.49;99.99
13496;DHT22;6820;49.374;8.452;2022-07-03T01:20:26;21.37;99.99
13496;DHT22;6820;49.374;8.452;2022-07-03T01:29:07;21.21;99.99
13496;DHT22;6820;49.374;8.452;2022-07-03T01:33:21;21.13;99.99
13496;DHT22;6820;49.374;8.452;2022-07-03T01:37:24;21.08;99.99
13496;DHT22;6820;49.374;8.452;2022-07-03T01:41:29;21.00;99.99
13496;DHT22;6820;49.374;8.452;2022-07-03T01:45:32;20.96;99.99
13496;DHT22;6820;49.374;8.452;2022-07-03T01:49:37;20.91;99.99
13496;DHT22;6820;49.374;8.452;2022-07-03T01:53:48;20.87;99.99
13496;DHT22;6820;49.374;8.452;2022-07-03T01:57:51;20.79;99.99
13496;DHT22;6820;49.374;8.452;2022-07-03T02:06:28;20.75;99.99
13496;DHT22;6820;49.374;8.452;2022-07-03T02:15:10;20.76;99.99
13496;DHT22;6820;49.374;8.452;2022-07-03T02:19:12;20.75;99.99
13496;DHT22;6820;49.374;8.452;2022-07-03T02:23:16;20.72;99.99
13496;DHT22;6820;49.374;8.452;2022-07-03T02:27:25;20.72;99.99
13496;DHT22;6820;49.374;8.452;2022-07-03T02:31:33;20.71;99.99
13496;DHT22;6820;49.374;8.452;2022-07-03T02:35:58;20.69;99.99
13496;DHT22;6820;49.374;8.452;2022-07-03T02:44:21;20.63;99.99
13496;DHT22;6820;49.374;8.452;2022-07-03T02:48:31;20.61;99.99
13496;DHT22;6820;49.374;8.452;2022-07-03T03:01:03;20.46;99.99
13496;DHT22;6820;49.374;8.452;2022-07-03T03:09:27;20.35;99.99
13496;DHT22;6820;49.374;8.452;2022-07-03T03:13:33;20.33;99.99
13496;DHT22;6820;49.374;8.452;2022-07-03T03:17:36;20.27;99.99
13496;DHT22;6820;49.374;8.452;2022-07-03T03:21:56;20.25;99.99
13496;DHT22;6820;49.374;8.452;2022-07-03T03:26:05;20.20;99.99
13496;DHT22;6820;49.374;8.452;2022-07-03T03:30:06;20.17;99.99
13496;DHT22;6820;49.374;8.452;2022-07-03T03:34:09;20.05;99.99
13496;DHT22;6820;49.374;8.452;2022-07-03T03:38:11;19.97;99.99
13496;DHT22;6820;49.374;8.452;2022-07-03T03:42:13;19.92;99.99
13496;DHT22;6820;49.374;8.452;2022-07-03T03:46:15;19.92;99.99
13496;DHT22;6820;49.374;8.452;2022-07-03T03:50:16;19.89;99.99
13496;DHT22;6820;49.374;8.452;2022-07-03T03:54:18;19.83;99.99
13496;DHT22;6820;49.374;8.452;2022-07-03T03:58:20;19.80;99.99
13496;DHT22;6820;49.374;8.452;2022-07-03T04:02:22;19.79;99.99
13496;DHT22;6820;49.374;8.452;2022-07-03T04:06:24;19.72;99.99
13496;DHT22;6820;49.374;8.452;2022-07-03T04:10:25;19.71;99.99
13496;DHT22;6820;49.374;8.452;2022-07-03T04:14:27;19.64;99.99
13496;DHT22;6820;49.374;8.452;2022-07-03T04:18:28;19.60;99.99
13496;DHT22;6820;49.374;8.452;2022-07-03T04:22:33;19.55;99.99
13496;DHT22;6820;49.374;8.452;2022-07-03T04:26:35;19.57;99.99
13496;DHT22;6820;49.374;8.452;2022-07-03T04:30:36;19.58;99.99
13496;DHT22;6820;49.374;8.452;2022-07-03T04:34:38;19.62;99.99
13496;DHT22;6820;49.374;8.452;2022-07-03T04:38:40;19.65;99.99
13496;DHT22;6820;49.374;8.452;2022-07-03T04:42:41;19.76;99.99
13496;DHT22;6820;49.374;8.452;2022-07-03T04:46:43;19.78;99.99
13496;DHT22;6820;49.374;8.452;2022-07-03T04:50:45;19.80;99.99
13496;DHT22;6820;49.374;8.452;2022-07-03T04:54:46;19.82;99.99
13496;DHT22;6820;49.374;8.452;2022-07-03T04:58:48;19.87;99.99
13496;DHT22;6820;49.374;8.452;2022-07-03T05:02:49;19.85;99.99
13496;DHT22;6820;49.374;8.452;2022-07-03T05:06:51;19.92;99.99
13496;DHT22;6820;49.374;8.452;2022-07-03T05:10:53;19.94;99.99
13496;DHT22;6820;49.374;8.452;2022-07-03T05:14:55;19.92;99.99
13496;DHT22;6820;49.374;8.452;2022-07-03T05:18:57;19.97;99.99
13496;DHT22;6820;49.374;8.452;2022-07-03T05:22:59;20.04;99.99
13496;DHT22;6820;49.374;8.452;2022-07-03T05:27:02;20.08;99.99
13496;DHT22;6820;49.374;8.452;2022-07-03T05:31:04;20.12;99.99
13496;DHT22;6820;49.374;8.452;2022-07-03T05:35:06;20.20;99.99
13496;DHT22;6820;49.374;8.452;2022-07-03T05:39:08;20.27;99.99
13496;DHT22;6820;49.374;8.452;2022-07-03T05:43:28;20.38;99.99
13496;DHT22;6820;49.374;8.452;2022-07-03T05:47:30;20.48;99.99
13496;DHT22;6820;49.374;8.452;2022-07-03T05:51:31;20.61;99.99
13496;DHT22;6820;49.374;8.452;2022-07-03T05:55:33;20.69;99.99
13496;DHT22;6820;49.374;8.452;2022-07-03T05:59:34;20.78;99.99
13496;DHT22;6820;49.374;8.452;2022-07-03T06:03:36;20.85;99.99
13496;DHT22;6820;49.374;8.452;2022-07-03T06:07:38;20.97;99.99
13496;DHT22;6820;49.374;8.452;2022-07-03T06:11:39;21.03;99.99
13496;DHT22;6820;49.374;8.452;2022-07-03T06:15:41;21.13;99.99
13496;DHT22;6820;49.374;8.452;2022-07-03T06:19:43;21.22;99.99
13496;DHT22;6820;49.374;8.452;2022-07-03T06:23:45;21.31;99.99
13496;DHT22;6820;49.374;8.452;2022-07-03T06:27:47;21.38;99.99
13496;DHT22;6820;49.374;8.452;2022-07-03T06:31:49;21.49;99.99
13496;DHT22;6820;49.374;8.452;2022-07-03T06:35:51;21.58;99.99
13496;DHT22;6820;49.374;8.452;2022-07-03T06:39:52;21.67;99.99
13496;DHT22;6820;49.374;8.452;2022-07-03T06:43:54;21.79;99.99
13496;DHT22;6820;49.374;8.452;2022-07-03T06:47:56;21.89;99.99
13496;DHT22;6820;49.374;8.452;2022-07-03T06:51:57;22.01;99.99
13496;DHT22;6820;49.374;8.452;2022-07-03T06:55:59;22.11;99.99
13496;DHT22;6820;49.374;8.452;2022-07-03T07:00:00;22.21;99.99
13496;DHT22;6820;49.374;8.452;2022-07-03T07:04:02;22.31;99.99
13496;DHT22;6820;49.374;8.452;2022-07-03T07:08:08;22.45;99.99
13496;DHT22;6820;49.374;8.452;2022-07-03T07:12:10;22.59;99.99
13496;DHT22;6820;49.374;8.452;2022-07-03T07:16:12;22.72;99.99
13496;DHT22;6820;49.374;8.452;2022-07-03T07:20:14;22.82;99.99
13496;DHT22;6820;49.374;8.452;2022-07-03T07:24:15;22.97;99.99
13496;DHT22;6820;49.374;8.452;2022-07-03T07:28:17;23.09;99.99
13496;DHT22;6820;49.374;8.452;2022-07-03T07:32:19;23.21;99.99
13496;DHT22;6820;49.374;8.452;2022-07-03T07:36:21;23.34;99.90
13496;DHT22;6820;49.374;8.452;2022-07-03T07:40:22;23.42;98.71
13496;DHT22;6820;49.374;8.452;2022-07-03T07:44:24;23.53;97.76
13496;DHT22;6820;49.374;8.452;2022-07-03T07:48:26;23.64;97.76
13496;DHT22;6820;49.374;8.452;2022-07-03T07:52:27;23.77;97.42
13496;DHT22;6820;49.374;8.452;2022-07-03T07:56:29;23.86;96.72
13496;DHT22;6820;49.374;8.452;2022-07-03T08:00:30;24.00;97.22
13496;DHT22;6820;49.374;8.452;2022-07-03T08:04:32;24.12;95.78
13496;DHT22;6820;49.374;8.452;2022-07-03T08:08:52;24.26;94.54
13496;DHT22;6820;49.374;8.452;2022-07-03T08:12:54;24.37;94.64
13496;DHT22;6820;49.374;8.452;2022-07-03T08:16:56;24.59;93.79
13496;DHT22;6820;49.374;8.452;2022-07-03T08:20:57;24.60;94.15
13496;DHT22;6820;49.374;8.452;2022-07-03T08:24:59;24.74;92.36
13496;DHT22;6820;49.374;8.452;2022-07-03T08:29:00;24.80;91.86
13496;DHT22;6820;49.374;8.452;2022-07-03T08:33:02;24.89;91.96
13496;DHT22;6820;49.374;8.452;2022-07-03T08:37:04;25.04;92.02
13496;DHT22;6820;49.374;8.452;2022-07-03T08:41:05;25.19;90.53
13496;DHT22;6820;49.374;8.452;2022-07-03T08:45:10;25.31;90.78
13496;DHT22;6820;49.374;8.452;2022-07-03T08:49:14;25.42;89.15
13496;DHT22;6820;49.374;8.452;2022-07-03T08:53:18;25.51;89.54
13496;DHT22;6820;49.374;8.452;2022-07-03T08:57:20;25.60;88.55
13496;DHT22;6820;49.374;8.452;2022-07-03T09:01:23;25.72;89.80
13496;DHT22;6820;49.374;8.452;2022-07-03T09:05:25;25.83;89.60
13496;DHT22;6820;49.374;8.452;2022-07-03T09:09:27;25.89;88.67
13496;DHT22;6820;49.374;8.452;2022-07-03T09:13:29;25.94;87.38
13496;DHT22;6820;49.374;8.452;2022-07-03T09:17:31;26.06;88.67
13496;DHT22;6820;49.374;8.452;2022-07-03T09:21:39;26.19;86.64
13496;DHT22;6820;49.374;8.452;2022-07-03T09:26:02;26.27;88.03
13496;DHT22;6820;49.374;8.452;2022-07-03T09:30:05;26.29;85.41
13496;DHT22;6820;49.374;8.452;2022-07-03T09:34:08;26.39;86.00
13496;DHT22;6820;49.374;8.452;2022-07-03T09:38:10;26.54;86.30
13496;DHT22;6820;49.374;8.452;2022-07-03T09:42:11;26.68;85.96
13496;DHT22;6820;49.374;8.452;2022-07-03T09:46:15;26.81;84.77
13496;DHT22;6820;49.374;8.452;2022-07-03T09:50:17;26.87;84.24
13496;DHT22;6820;49.374;8.452;2022-07-03T09:54:19;26.96;82.95
13496;DHT22;6820;49.374;8.452;2022-07-03T09:58:20;26.98;83.05
13496;DHT22;6820;49.374;8.452;2022-07-03T10:02:22;27.18;83.90
13496;DHT22;6820;49.374;8.452;2022-07-03T10:06:24;27.43;83.80
13496;DHT22;6820;49.374;8.452;2022-07-03T10:10:26;27.62;82.28
13496;DHT22;6820;49.374;8.452;2022-07-03T10:14:30;27.81;82.93
13496;DHT22;6820;49.374;8.452;2022-07-03T10:18:35;27.95;79.14
13496;DHT22;6820;49.374;8.452;2022-07-03T10:22:39;27.99;75.58
13496;DHT22;6820;49.374;8.452;2022-07-03T10:26:43;28.05;75.15
13496;DHT22;6820;49.374;8.452;2022-07-03T10:30:48;28.15;74.26
13496;DHT22;6820;49.374;8.452;2022-07-03T10:34:50;28.24;74.65
13496;DHT22;6820;49.374;8.452;2022-07-03T10:38:52;28.45;76.29
13496;DHT22;6820;49.374;8.452;2022-07-03T10:43:01;28.55;74.88
13496;DHT22;6820;49.374;8.452;2022-07-03T10:47:42;28.69;74.88
13496;DHT22;6820;49.374;8.452;2022-07-03T10:56:24;28.85;73.46
13496;DHT22;6820;49.374;8.452;2022-07-03T11:00:18;28.92;73.96
13496;DHT22;6820;49.374;8.452;2022-07-03T11:04:20;29.03;74.02
13496;DHT22;6820;49.374;8.452;2022-07-03T11:08:22;29.02;73.62
13496;DHT22;6820;49.374;8.452;2022-07-03T11:12:52;29.00;73.33
13496;DHT22;6820;49.374;8.452;2022-07-03T11:21:21;29.17;72.44
13496;DHT22;6820;49.374;8.452;2022-07-03T11:25:40;29.30;72.11
13496;DHT22;6820;49.374;8.452;2022-07-03T11:29:47;29.27;71.62
13496;DHT22;6820;49.374;8.452;2022-07-03T11:37:52;29.48;71.62
13496;DHT22;6820;49.374;8.452;2022-07-03T11:41:56;29.69;72.08
13496;DHT22;6820;49.374;8.452;2022-07-03T11:45:58;29.86;71.06
13496;DHT22;6820;49.374;8.452;2022-07-03T11:50:01;29.89;70.96
13496;DHT22;6820;49.374;8.452;2022-07-03T11:54:03;29.94;71.25
13496;DHT22;6820;49.374;8.452;2022-07-03T11:58:05;30.06;71.22
13496;DHT22;6820;49.374;8.452;2022-07-03T12:02:07;30.16;70.73
13496;DHT22;6820;49.374;8.452;2022-07-03T12:06:09;30.28;70.40
13496;DHT22;6820;49.374;8.452;2022-07-03T12:10:10;30.45;71.77
13496;DHT22;6820;49.374;8.452;2022-07-03T12:14:12;30.46;70.86
13496;DHT22;6820;49.374;8.452;2022-07-03T12:18:14;30.67;71.94
13496;DHT22;6820;49.374;8.452;2022-07-03T12:22:29;30.76;68.56
13496;DHT22;6820;49.374;8.452;2022-07-03T12:26:33;30.73;68.27
13496;DHT22;6820;49.374;8.452;2022-07-03T12:30:36;30.88;69.25
13496;DHT22;6820;49.374;8.452;2022-07-03T12:34:38;30.96;68.23
13496;DHT22;6820;49.374;8.452;2022-07-03T12:38:40;31.01;67.94
13496;DHT22;6820;49.374;8.452;2022-07-03T12:42:57;31.28;68.13
13496;DHT22;6820;49.374;8.452;2022-07-03T12:46:59;31.65;68.88
13496;DHT22;6820;49.374;8.452;2022-07-03T12:51:01;31.79;69.02
13496;DHT22;6820;49.374;8.452;2022-07-03T12:55:03;31.90;68.13
13496;DHT22;6820;49.374;8.452;2022-07-03T12:59:05;31.85;66.63
13496;DHT22;6820;49.374;8.452;2022-07-03T13:03:25;32.12;67.15
13496;DHT22;6820;49.374;8.452;2022-07-03T13:07:41;32.43;66.50
13496;DHT22;6820;49.374;8.452;2022-07-03T13:11:43;32.58;65.20
13496;DHT22;6820;49.374;8.452;2022-07-03T13:15:45;32.46;65.49
13496;DHT22;6820;49.374;8.452;2022-07-03T13:19:52;32.65;65.00
13496;DHT22;6820;49.374;8.452;2022-07-03T13:23:55;32.80;65.95
13496;DHT22;6820;49.374;8.452;2022-07-03T13:28:10;32.63;66.24
13496;DHT22;6820;49.374;8.452;2022-07-03T13:32:13;32.56;65.75
13496;DHT22;6820;49.374;8.452;2022-07-03T13:36:15;32.40;64.41
13496;DHT22;6820;49.374;8.452;2022-07-03T13:40:18;32.27;64.61
13496;DHT22;6820;49.374;8.452;2022-07-03T13:44:22;31.97;65.23
13496;DHT22;6820;49.374;8.452;2022-07-03T13:48:24;31.65;66.44
13496;DHT22;6820;49.374;8.452;2022-07-03T13:52:25;32.05;66.37
13496;DHT22;6820;49.374;8.452;2022-07-03T13:56:27;32.05;67.51
13496;DHT22;6820;49.374;8.452;2022-07-03T14:00:29;31.85;68.00
13496;DHT22;6820;49.374;8.452;2022-07-03T14:04:30;32.13;68.33
13496;DHT22;6820;49.374;8.452;2022-07-03T14:08:32;32.35;68.26
13496;DHT22;6820;49.374;8.452;2022-07-03T14:12:34;32.93;66.66
13496;DHT22;6820;49.374;8.452;2022-07-03T14:16:35;33.29;64.84
13496;DHT22;6820;49.374;8.452;2022-07-03T14:20:39;33.06;63.54
13496;DHT22;6820;49.374;8.452;2022-07-03T14:24:40;33.07;63.28
13496;DHT22;6820;49.374;8.452;2022-07-03T14:28:42;33.21;62.88
13496;DHT22;6820;49.374;8.452;2022-07-03T14:33:03;33.24;64.03
13496;DHT22;6820;49.374;8.452;2022-07-03T14:37:04;33.45;62.16
13496;DHT22;6820;49.374;8.452;2022-07-03T14:41:06;33.47;61.45
13496;DHT22;6820;49.374;8.452;2022-07-03T14:45:08;33.86;63.02
13496;DHT22;6820;49.374;8.452;2022-07-03T14:49:10;34.11;62.56
13496;DHT22;6820;49.374;8.452;2022-07-03T14:53:11;34.34;61.66
13496;DHT22;6820;49.374;8.452;2022-07-03T14:57:26;34.56;61.85
13496;DHT22;6820;49.374;8.452;2022-07-03T15:01:40;34.48;62.50
13496;DHT22;6820;49.374;8.452;2022-07-03T15:05:47;34.58;62.41
13496;DHT22;6820;49.374;8.452;2022-07-03T15:09:54;34.56;61.53
13496;DHT22;6820;49.374;8.452;2022-07-03T15:14:20;34.67;61.72
13496;DHT22;6820;49.374;8.452;2022-07-03T15:18:22;34.63;60.62
13496;DHT22;6820;49.374;8.452;2022-07-03T15:22:24;34.40;61.50
13496;DHT22;6820;49.374;8.452;2022-07-03T15:26:28;34.42;60.16
13496;DHT22;6820;49.374;8.452;2022-07-03T15:30:30;34.30;60.75
13496;DHT22;6820;49.374;8.452;2022-07-03T15:34:33;34.78;60.78
13496;DHT22;6820;49.374;8.452;2022-07-03T15:38:38;34.45;60.91
13496;DHT22;6820;49.374;8.452;2022-07-03T15:55:58;34.87;62.79
13496;DHT22;6820;49.374;8.452;2022-07-03T16:00:06;34.91;63.12
13496;DHT22;6820;49.374;8.452;2022-07-03T16:04:17;35.03;63.02
13496;DHT22;6820;49.374;8.452;2022-07-03T16:08:24;34.73;61.86
13496;DHT22;6820;49.374;8.452;2022-07-03T16:12:27;34.71;63.64
13496;DHT22;6820;49.374;8.452;2022-07-03T16:16:29;34.78;61.40
13496;DHT22;6820;49.374;8.452;2022-07-03T16:20:31;35.07;61.69
13496;DHT22;6820;49.374;8.452;2022-07-03T16:24:34;35.09;63.71
13496;DHT22;6820;49.374;8.452;2022-07-03T16:28:36;34.72;63.51
13496;DHT22;6820;49.374;8.452;2022-07-03T16:32:41;34.42;63.74
13496;DHT22;6820;49.374;8.452;2022-07-03T16:36:45;34.56;63.18
13496;DHT22;6820;49.374;8.452;2022-07-03T16:40:49;34.43;63.87
13496;DHT22;6820;49.374;8.452;2022-07-03T16:44:52;34.50;64.45
13496;DHT22;6820;49.374;8.452;2022-07-03T16:48:54;34.64;64.84
13496;DHT22;6820;49.374;8.452;2022-07-03T16:52:57;34.72;64.42
13496;DHT22;6820;49.374;8.452;2022-07-03T16:56:59;34.69;64.42
13496;DHT22;6820;49.374;8.452;2022-07-03T17:01:03;34.65;64.91
13496;DHT22;6820;49.374;8.452;2022-07-03T17:05:08;34.58;64.72
13496;DHT22;6820;49.374;8.452;2022-07-03T17:09:12;34.46;63.96
13496;DHT22;6820;49.374;8.452;2022-07-03T17:13:14;34.23;63.48
13496;DHT22;6820;49.374;8.452;2022-07-03T17:17:18;33.97;63.41
13496;DHT22;6820;49.374;8.452;2022-07-03T17:21:22;33.74;63.54
13496;DHT22;6820;49.374;8.452;2022-07-03T17:25:29;33.38;64.06
13496;DHT22;6820;49.374;8.452;2022-07-03T17:29:38;32.99;65.26
13496;DHT22;6820;49.374;8.452;2022-07-03T17:33:52;32.61;65.72
13496;DHT22;6820;49.374;8.452;2022-07-03T17:37:58;32.34;66.83
13496;DHT22;6820;49.374;8.452;2022-07-03T17:42:01;32.07;67.38
13496;DHT22;6820;49.374;8.452;2022-07-03T17:46:03;31.88;67.90
13496;DHT22;6820;49.374;8.452;2022-07-03T17:50:06;31.71;68.10
13496;DHT22;6820;49.374;8.452;2022-07-03T17:54:09;31.47;68.04
13496;DHT22;6820;49.374;8.452;2022-07-03T17:58:13;31.31;68.26
13496;DHT22;6820;49.374;8.452;2022-07-03T18:02:15;31.15;69.09
13496;DHT22;6820;49.374;8.452;2022-07-03T18:06:18;30.98;70.36
13496;DHT22;6820;49.374;8.452;2022-07-03T18:10:25;30.85;70.49
13496;DHT22;6820;49.374;8.452;2022-07-03T18:14:34;30.72;70.03
13496;DHT22;6820;49.374;8.452;2022-07-03T18:18:42;30.63;70.53
13496;DHT22;6820;49.374;8.452;2022-07-03T18:22:45;30.54;70.66
13496;DHT22;6820;49.374;8.452;2022-07-03T18:26:48;30.46;71.54
13496;DHT22;6820;49.374;8.452;2022-07-03T18:30:57;30.36;72.63
13496;DHT22;6820;49.374;8.452;2022-07-03T18:34:59;30.25;73.25
13496;DHT22;6820;49.374;8.452;2022-07-03T18:39:02;30.15;73.74
13496;DHT22;6820;49.374;8.452;2022-07-03T18:43:05;30.03;74.33
13496;DHT22;6820;49.374;8.452;2022-07-03T18:47:07;29.94;74.86
13496;DHT22;6820;49.374;8.452;2022-07-03T18:51:09;29.88;75.74
13496;DHT22;6820;49.374;8.452;2022-07-03T19:00:24;29.67;74.90
13496;DHT22;6820;49.374;8.452;2022-07-03T19:08:33;29.44;76.51
13496;DHT22;6820;49.374;8.452;2022-07-03T19:12:39;29.36;76.51
13496;DHT22;6820;49.374;8.452;2022-07-03T19:16:47;29.27;76.54
13496;DHT22;6820;49.374;8.452;2022-07-03T19:20:49;29.14;77.43
13496;DHT22;6820;49.374;8.452;2022-07-03T19:24:51;29.07;77.37
13496;DHT22;6820;49.374;8.452;2022-07-03T19:28:53;28.98;78.16
13496;DHT22;6820;49.374;8.452;2022-07-03T19:32:55;28.89;79.05
13496;DHT22;6820;49.374;8.452;2022-07-03T19:36:57;28.79;79.58
13496;DHT22;6820;49.374;8.452;2022-07-03T19:40:59;28.67;80.27
13496;DHT22;6820;49.374;8.452;2022-07-03T19:45:01;28.58;81.29
13496;DHT22;6820;49.374;8.452;2022-07-03T19:49:02;28.50;82.48
13496;DHT22;6820;49.374;8.452;2022-07-03T19:53:04;28.27;83.56
13496;DHT22;6820;49.374;8.452;2022-07-03T19:57:06;28.11;85.08
13496;DHT22;6820;49.374;8.452;2022-07-03T20:01:08;27.99;86.01
13496;DHT22;6820;49.374;8.452;2022-07-03T20:05:10;27.88;87.00
13496;DHT22;6820;49.374;8.452;2022-07-03T20:09:11;27.80;87.73
13496;DHT22;6820;49.374;8.452;2022-07-03T20:13:13;27.74;88.13
13496;DHT22;6820;49.374;8.452;2022-07-03T20:17:15;27.68;88.42
13496;DHT22;6820;49.374;8.452;2022-07-03T20:21:16;27.61;87.48
13496;DHT22;6820;49.374;8.452;2022-07-03T20:25:18;27.39;86.88
13496;DHT22;6820;49.374;8.452;2022-07-03T20:29:20;27.12;89.99
13496;DHT22;6820;49.374;8.452;2022-07-03T20:33:22;26.81;85.39
13496;DHT22;6820;49.374;8.452;2022-07-03T20:37:26;26.61;82.56
13496;DHT22;6820;49.374;8.452;2022-07-03T20:41:28;26.56;81.90
13496;DHT22;6820;49.374;8.452;2022-07-03T20:45:30;26.49;81.90
13496;DHT22;6820;49.374;8.452;2022-07-03T20:49:32;26.38;82.24
13496;DHT22;6820;49.374;8.452;2022-07-03T20:53:33;26.28;82.64
13496;DHT22;6820;49.374;8.452;2022-07-03T20:57:35;26.21;83.03
13496;DHT22;6820;49.374;8.452;2022-07-03T21:01:37;26.12;83.37
13496;DHT22;6820;49.374;8.452;2022-07-03T21:05:38;25.98;83.76
13496;DHT22;6820;49.374;8.452;2022-07-03T21:09:40;25.89;84.30
13496;DHT22;6820;49.374;8.452;2022-07-03T21:13:42;25.79;85.00
13496;DHT22;6820;49.374;8.452;2022-07-03T21:17:43;25.60;85.89
13496;DHT22;6820;49.374;8.452;2022-07-03T21:21:45;25.54;86.52
13496;DHT22;6820;49.374;8.452;2022-07-03T21:25:48;25.51;86.92
13496;DHT22;6820;49.374;8.452;2022-07-03T21:29:50;25.42;87.36
13496;DHT22;6820;49.374;8.452;2022-07-03T21:33:52;25.35;87.76
13496;DHT22;6820;49.374;8.452;2022-07-03T21:37:54;25.26;88.35
13496;DHT22;6820;49.374;8.452;2022-07-03T21:41:56;25.17;88.79
13496;DHT22;6820;49.374;8.452;2022-07-03T21:45:57;25.01;89.29
13496;DHT22;6820;49.374;8.452;2022-07-03T21:49:59;24.94;89.93
13496;DHT22;6820;49.374;8.452;2022-07-03T21:54:01;24.86;90.13
13496;DHT22;6820;49.374;8.452;2022-07-03T21:58:02;24.80;90.53
13496;DHT22;6820;49.374;8.452;2022-07-03T22:02:05;24.71;90.97
13496;DHT22;6820;49.374;8.452;2022-07-03T22:06:06;24.63;90.97
13496;DHT22;6820;49.374;8.452;2022-07-03T22:10:08;24.53;91.66
13496;DHT22;6820;49.374;8.452;2022-07-03T22:14:10;24.45;92.00
13496;DHT22;6820;49.374;8.452;2022-07-03T22:18:12;24.41;92.30
13496;DHT22;6820;49.374;8.452;2022-07-03T22:22:14;24.33;92.40
13496;DHT22;6820;49.374;8.452;2022-07-03T22:26:16;24.24;92.65
13496;DHT22;6820;49.374;8.452;2022-07-03T22:30:17;24.23;92.65
13496;DHT22;6820;49.374;8.452;2022-07-03T22:34:19;24.15;92.45
13496;DHT22;6820;49.374;8.452;2022-07-03T22:38:21;24.11;92.35
13496;DHT22;6820;49.374;8.452;2022-07-03T22:42:23;24.05;92.65
13496;DHT22;6820;49.374;8.452;2022-07-03T22:46:25;23.99;92.69
13496;DHT22;6820;49.374;8.452;2022-07-03T22:50:27;23.92;93.09
13496;DHT22;6820;49.374;8.452;2022-07-03T22:54:29;23.78;93.39
13496;DHT22;6820;49.374;8.452;2022-07-03T22:58:31;23.74;93.53
13496;DHT22;6820;49.374;8.452;2022-07-03T23:02:33;23.71;93.73
13496;DHT22;6820;49.374;8.452;2022-07-03T23:06:35;23.64;94.13
13496;DHT22;6820;49.374;8.452;2022-07-03T23:10:38;23.57;94.23
13496;DHT22;6820;49.374;8.452;2022-07-03T23:14:40;23.57;94.48
13496;DHT22;6820;49.374;8.452;2022-07-03T23:18:42;23.54;94.27
13496;DHT22;6820;49.374;8.452;2022-07-03T23:22:44;23.47;94.48
13496;DHT22;6820;49.374;8.452;2022-07-03T23:26:45;23.38;94.67
13496;DHT22;6820;49.374;8.452;2022-07-03T23:30:47;23.26;94.52
13496;DHT22;6820;49.374;8.452;2022-07-03T23:34:49;23.22;94.52
13496;DHT22;6820;49.374;8.452;2022-07-03T23:38:51;23.23;94.12
13496;DHT22;6820;49.374;8.452;2022-07-03T23:42:52;23.18;94.02
13496;DHT22;6820;49.374;8.452;2022-07-03T23:46:57;23.18;93.92
13496;DHT22;6820;49.374;8.452;2022-07-03T23:50:59;23.18;93.92
13496;DHT22;6820;49.374;8.452;2022-07-03T23:55:02;23.12;93.82
13496;DHT22;6820;49.374;8.452;2022-07-03T23:59:04;23.03;93.96
